Time;durP1;ratioP1;P1;durP2;ratioP2;P2;SDS_P1;SDS_P2;PMS_P1;PMS_P2;Temp;Humidity;BMP_temperature;BMP_pressure;BME280_temperature;BME280_humidity;BME280_pressure;Samples;Min_cycle;Max_cycle;Signal;HPM_P1;HPM_P2
2023/03/14 00:01:23;;;;;;;5.97;4.50;;;;;;;;;;5006438;28;20432;-64
2023/03/14 00:03:48;;;;;;;5.93;4.50;;;;;;;;;;5007269;28;20495;-64
2023/03/14 00:06:13;;;;;;;5.15;4.32;;;;;;;;;;5011257;28;20030;-64
2023/03/14 00:08:39;;;;;;;6.50;4.47;;;;;;;;;;5013725;28;20071;-64
2023/03/14 00:11:07;;;;;;;6.20;4.30;;;;;;;;;;5010926;28;20033;-63
2023/03/14 00:13:33;;;;;;;6.18;4.60;;;;;;;;;;5007324;28;20095;-63
2023/03/14 00:16:01;;;;;;;6.80;4.80;;;;;;;;;;5015209;28;20084;-64
2023/03/14 00:18:27;;;;;;;7.30;5.00;;;;;;;;;;5014728;28;20025;-63
2023/03/14 00:20:52;;;;;;;6.50;4.20;;;;;;;;;;5018064;28;20041;-63
2023/03/14 00:23:17;;;;;;;7.20;4.23;;;;;;;;;;5011714;28;20747;-63
2023/03/14 00:25:42;;;;;;;6.13;4.70;;;;;;;;;;5005562;28;20745;-64
2023/03/14 00:28:08;;;;;;;7.67;4.80;;;;;;;;;;5024326;28;20390;-63
2023/03/14 00:30:33;;;;;;;5.97;4.00;;;;;;;;;;5013306;28;20291;-64
2023/03/14 00:32:58;;;;;;;5.67;4.37;;;;;;;;;;5013032;28;20080;-64
2023/03/14 00:35:23;;;;;;;5.73;4.07;;;;;;;;;;5010551;28;20038;-63
2023/03/14 00:37:48;;;;;;;6.40;4.50;;;;;;;;;;5012588;28;20366;-63
2023/03/14 00:40:14;;;;;;;5.90;4.20;;;;;;;;;;4997942;28;20414;-62
2023/03/14 00:42:39;;;;;;;5.93;4.60;;;;;;;;;;5019379;28;20588;-63
2023/03/14 00:45:04;;;;;;;7.20;4.67;;;;;;;;;;5010313;28;20371;-63
2023/03/14 00:47:30;;;;;;;5.93;4.40;;;;;;;;;;5011271;28;20300;-64
2023/03/14 00:49:55;;;;;;;6.80;4.33;;;;;;;;;;5008020;28;20456;-63
2023/03/14 00:52:20;;;;;;;7.00;4.20;;;;;;;;;;5012036;28;20665;-64
2023/03/14 00:54:45;;;;;;;6.80;4.93;;;;;;;;;;5010734;28;20291;-63
2023/03/14 00:57:11;;;;;;;6.85;5.03;;;;;;;;;;5024553;28;20025;-64
2023/03/14 00:59:36;;;;;;;6.33;4.67;;;;;;;;;;5027138;28;20048;-64
2023/03/14 01:02:01;;;;;;;6.03;4.53;;;;;;;;;;5025339;28;20763;-65
2023/03/14 01:04:26;;;;;;;6.53;4.83;;;;;;;;;;5027787;28;20656;-63
2023/03/14 01:06:52;;;;;;;6.85;5.00;;;;;;;;;;5024620;28;20276;-66
2023/03/14 01:09:17;;;;;;;6.30;4.43;;;;;;;;;;5027388;28;20532;-63
2023/03/14 01:11:46;;;;;;;7.63;5.07;;;;;;;;;;5023582;28;20548;-63
2023/03/14 01:14:11;;;;;;;6.10;4.57;;;;;;;;;;5027924;28;20030;-63
2023/03/14 01:16:36;;;;;;;6.00;4.43;;;;;;;;;;5027094;28;20037;-63
2023/03/14 01:19:02;;;;;;;6.50;4.70;;;;;;;;;;5027513;28;20038;-65
2023/03/14 01:21:28;;;;;;;6.45;4.60;;;;;;;;;;5026864;28;20072;-63
2023/03/14 01:23:54;;;;;;;5.97;4.43;;;;;;;;;;4977016;28;20068;-65
2023/03/14 01:26:20;;;;;;;6.47;4.70;;;;;;;;;;5007752;28;20026;-64
2023/03/14 01:28:45;;;;;;;5.60;4.35;;;;;;;;;;5026266;28;20041;-65
2023/03/14 01:31:10;;;;;;;6.22;4.65;;;;;;;;;;5025953;28;20030;-63
2023/03/14 01:33:36;;;;;;;6.65;4.45;;;;;;;;;;5026447;28;20513;-64
2023/03/14 01:36:04;;;;;;;6.20;4.43;;;;;;;;;;5019610;28;20033;-63
2023/03/14 01:38:29;;;;;;;6.70;4.38;;;;;;;;;;4989056;28;20141;-64
2023/03/14 01:40:55;;;;;;;7.53;4.95;;;;;;;;;;5007968;28;20042;-63
2023/03/14 01:43:20;;;;;;;6.55;4.95;;;;;;;;;;5026596;28;20041;-64
2023/03/14 01:46:01;;;;;;;6.28;4.50;;;;;;;;;;5024895;28;20033;-64
2023/03/14 01:48:27;;;;;;;6.25;4.10;;;;;;;;;;5024546;28;20514;-63
2023/03/14 01:50:53;;;;;;;7.15;4.70;;;;;;;;;;5002294;28;20029;-63
2023/03/14 01:53:21;;;;;;;6.53;4.57;;;;;;;;;;5023653;28;20064;-66
2023/03/14 01:55:46;;;;;;;6.80;4.97;;;;;;;;;;5021623;28;20084;-64
2023/03/14 01:58:11;;;;;;;6.35;4.57;;;;;;;;;;5018253;28;20456;-64
2023/03/14 02:00:36;;;;;;;5.40;4.27;;;;;;;;;;5005182;28;20033;-66
2023/03/14 02:03:02;;;;;;;6.40;4.83;;;;;;;;;;5026206;28;20355;-63
2023/03/14 02:05:32;;;;;;;7.00;4.68;;;;;;;;;;5019520;28;20435;-63
2023/03/14 02:07:58;;;;;;;5.60;4.15;;;;;;;;;;4997627;28;20029;-64
2023/03/14 02:10:42;;;;;;;6.65;4.50;;;;;;;;;;5009867;28;20026;-63
2023/03/14 02:13:08;;;;;;;5.80;4.50;;;;;;;;;;5021086;28;20084;-65
2023/03/14 02:15:33;;;;;;;6.07;4.47;;;;;;;;;;5021406;28;20391;-64
2023/03/14 02:17:58;;;;;;;7.00;4.63;;;;;;;;;;5025518;28;20034;-63
2023/03/14 02:20:56;;;;;;;7.00;4.90;;;;;;;;;;5006869;28;20280;-62
2023/03/14 02:23:27;;;;;;;6.55;4.80;;;;;;;;;;4971048;28;20092;-63
2023/03/14 02:26:01;;;;;;;6.28;5.00;;;;;;;;;;5007436;28;20029;-65
2023/03/14 02:28:26;;;;;;;6.85;5.18;;;;;;;;;;5015502;28;20058;-63
2023/03/14 02:30:51;;;;;;;5.93;4.40;;;;;;;;;;5002393;28;20389;-64
2023/03/14 02:33:17;;;;;;;6.90;5.10;;;;;;;;;;5024459;28;20292;-64
2023/03/14 02:35:48;;;;;;;6.22;4.53;;;;;;;;;;5007766;28;20366;-65
2023/03/14 02:38:31;;;;;;;6.82;5.10;;;;;;;;;;5031928;28;20053;-63
2023/03/14 02:40:56;;;;;;;6.82;4.90;;;;;;;;;;5031846;28;20413;-64
2023/03/14 02:43:21;;;;;;;6.55;4.95;;;;;;;;;;5025129;28;20033;-64
2023/03/14 02:45:47;;;;;;;5.67;4.40;;;;;;;;;;5025333;28;20021;-65
2023/03/14 02:48:16;;;;;;;6.25;4.78;;;;;;;;;;5025248;28;20308;-64
2023/03/14 02:50:42;;;;;;;6.78;4.68;;;;;;;;;;5021680;28;20068;-65
2023/03/14 02:53:07;;;;;;;6.75;4.80;;;;;;;;;;5017091;28;20061;-63
2023/03/14 02:55:32;;;;;;;6.03;4.43;;;;;;;;;;5003150;28;20471;-63
2023/03/14 02:57:57;;;;;;;6.70;4.73;;;;;;;;;;5009759;28;20290;-64
2023/03/14 03:00:22;;;;;;;6.47;5.00;;;;;;;;;;4993577;28;20299;-62
2023/03/14 03:02:48;;;;;;;7.00;4.77;;;;;;;;;;5016032;28;20324;-63
2023/03/14 03:05:13;;;;;;;6.87;4.80;;;;;;;;;;5023431;28;20875;-65
2023/03/14 03:07:38;;;;;;;6.60;4.40;;;;;;;;;;5009338;28;20137;-64
2023/03/14 03:10:04;;;;;;;6.27;5.10;;;;;;;;;;4993219;28;20845;-63
2023/03/14 03:12:29;;;;;;;6.50;4.60;;;;;;;;;;5008810;28;20673;-66
2023/03/14 03:14:54;;;;;;;5.87;4.60;;;;;;;;;;4996348;28;20425;-64
2023/03/14 03:17:19;;;;;;;7.37;4.83;;;;;;;;;;5014212;28;20279;-64
2023/03/14 03:19:44;;;;;;;6.93;4.80;;;;;;;;;;5024598;28;20029;-64
2023/03/14 03:22:10;;;;;;;6.37;4.70;;;;;;;;;;5024259;28;20144;-64
2023/03/14 03:24:35;;;;;;;7.10;4.82;;;;;;;;;;5024667;28;20288;-64
2023/03/14 03:27:00;;;;;;;7.20;4.83;;;;;;;;;;5015500;28;20037;-65
2023/03/14 03:29:25;;;;;;;6.37;4.70;;;;;;;;;;5025064;28;20044;-64
2023/03/14 03:31:51;;;;;;;6.67;4.53;;;;;;;;;;5022722;28;20037;-63
2023/03/14 03:34:16;;;;;;;6.73;4.87;;;;;;;;;;5024881;28;20334;-64
2023/03/14 03:36:41;;;;;;;5.83;4.50;;;;;;;;;;5023150;28;20045;-64
2023/03/14 03:39:06;;;;;;;6.87;5.20;;;;;;;;;;5029706;28;20276;-64
2023/03/14 03:41:32;;;;;;;6.53;4.90;;;;;;;;;;5028619;28;20368;-64
2023/03/14 03:43:57;;;;;;;6.18;4.65;;;;;;;;;;5027928;28;20042;-64
2023/03/14 03:46:22;;;;;;;5.83;4.63;;;;;;;;;;5005608;28;20040;-64
2023/03/14 03:48:47;;;;;;;5.67;4.50;;;;;;;;;;5029095;28;20292;-62
2023/03/14 03:51:13;;;;;;;5.97;4.53;;;;;;;;;;5027326;28;20802;-63
2023/03/14 03:53:38;;;;;;;6.53;4.60;;;;;;;;;;5028724;28;20371;-62
2023/03/14 03:56:04;;;;;;;6.47;4.57;;;;;;;;;;5017142;28;20073;-65
2023/03/14 03:58:29;;;;;;;6.32;4.45;;;;;;;;;;5023360;28;20033;-63
2023/03/14 04:00:54;;;;;;;6.47;4.50;;;;;;;;;;5028557;28;20030;-64
2023/03/14 04:03:20;;;;;;;6.37;4.97;;;;;;;;;;5028105;28;20771;-64
2023/03/14 04:05:45;;;;;;;6.28;4.95;;;;;;;;;;5021375;28;20821;-65
2023/03/14 04:08:10;;;;;;;6.97;4.70;;;;;;;;;;5013118;28;20058;-63
2023/03/14 04:10:35;;;;;;;6.43;4.70;;;;;;;;;;5029892;28;20107;-63
2023/03/14 04:13:00;;;;;;;6.50;4.77;;;;;;;;;;5011184;28;20280;-64
2023/03/14 04:15:26;;;;;;;6.63;4.50;;;;;;;;;;5011098;28;20292;-63
2023/03/14 04:17:51;;;;;;;7.30;4.83;;;;;;;;;;5021727;28;20571;-63
2023/03/14 04:20:16;;;;;;;6.13;4.80;;;;;;;;;;5025199;28;20430;-64
2023/03/14 04:22:42;;;;;;;6.05;4.75;;;;;;;;;;5020214;28;20303;-63
2023/03/14 04:25:07;;;;;;;6.75;4.78;;;;;;;;;;5026788;28;20034;-64
2023/03/14 04:27:32;;;;;;;6.13;5.00;;;;;;;;;;5027865;28;20416;-63
2023/03/14 04:29:58;;;;;;;5.93;4.80;;;;;;;;;;5027895;28;20072;-64
2023/03/14 04:32:23;;;;;;;6.23;4.87;;;;;;;;;;5027468;28;20324;-63
2023/03/14 04:34:48;;;;;;;6.25;4.53;;;;;;;;;;5005054;28;20284;-65
2023/03/14 04:37:13;;;;;;;6.40;4.97;;;;;;;;;;5021068;28;20071;-64
2023/03/14 04:39:39;;;;;;;7.30;4.93;;;;;;;;;;5027176;28;20026;-63
2023/03/14 04:42:04;;;;;;;6.60;4.80;;;;;;;;;;5020821;28;20710;-62
2023/03/14 04:44:29;;;;;;;7.37;4.80;;;;;;;;;;4996193;28;20283;-64
2023/03/14 04:46:54;;;;;;;6.28;4.25;;;;;;;;;;5025929;28;20645;-63
2023/03/14 04:49:20;;;;;;;7.10;5.40;;;;;;;;;;5012989;28;20095;-63
2023/03/14 04:51:45;;;;;;;5.53;4.47;;;;;;;;;;5022229;28;20297;-63
2023/03/14 04:54:10;;;;;;;5.20;4.27;;;;;;;;;;5020862;28;20034;-65
2023/03/14 04:56:36;;;;;;;5.20;4.20;;;;;;;;;;4989809;28;20279;-63
2023/03/14 04:59:02;;;;;;;5.95;4.75;;;;;;;;;;5021581;28;20045;-63
2023/03/14 05:01:27;;;;;;;6.80;4.70;;;;;;;;;;4991542;28;20064;-63
2023/03/14 05:03:52;;;;;;;5.93;4.40;;;;;;;;;;5013695;28;20057;-63
2023/03/14 05:06:17;;;;;;;7.10;5.07;;;;;;;;;;5015169;28;20730;-62
2023/03/14 05:08:43;;;;;;;7.27;4.70;;;;;;;;;;5009456;28;20335;-63
2023/03/14 05:11:09;;;;;;;7.68;4.82;;;;;;;;;;5015173;28;20280;-63
2023/03/14 05:13:34;;;;;;;7.50;4.72;;;;;;;;;;4992120;28;20124;-65
2023/03/14 05:16:03;;;;;;;7.97;4.70;;;;;;;;;;5009063;28;20153;-64
2023/03/14 05:18:29;;;;;;;7.45;4.65;;;;;;;;;;5008976;28;20331;-65
2023/03/14 05:20:54;;;;;;;8.00;5.00;;;;;;;;;;5017926;28;20080;-65
2023/03/14 05:23:19;;;;;;;8.27;4.50;;;;;;;;;;5018532;28;20805;-63
2023/03/14 05:25:44;;;;;;;7.13;4.53;;;;;;;;;;5012734;28;20561;-64
2023/03/14 05:28:09;;;;;;;6.33;4.40;;;;;;;;;;5009681;28;20370;-67
2023/03/14 05:30:35;;;;;;;7.73;4.53;;;;;;;;;;5008177;28;20574;-65
2023/03/14 05:33:00;;;;;;;7.93;5.10;;;;;;;;;;5013459;28;20551;-64
2023/03/14 05:35:25;;;;;;;8.10;4.87;;;;;;;;;;5014176;28;20299;-65
2023/03/14 05:37:50;;;;;;;7.00;4.80;;;;;;;;;;5016285;28;20045;-65
2023/03/14 05:40:16;;;;;;;6.00;4.50;;;;;;;;;;5015345;28;20033;-65
2023/03/14 05:42:41;;;;;;;6.72;4.18;;;;;;;;;;5011213;28;20042;-65
2023/03/14 05:45:06;;;;;;;7.20;4.13;;;;;;;;;;4994349;28;20437;-62
2023/03/14 05:47:31;;;;;;;8.07;4.63;;;;;;;;;;5006827;28;20307;-64
2023/03/14 05:49:57;;;;;;;6.77;4.17;;;;;;;;;;5007762;28;20049;-63
2023/03/14 05:52:22;;;;;;;6.23;4.43;;;;;;;;;;5008126;28;20073;-63
2023/03/14 05:54:47;;;;;;;6.15;4.22;;;;;;;;;;5008472;28;20057;-63
2023/03/14 05:57:13;;;;;;;6.97;3.90;;;;;;;;;;5009615;28;20045;-64
2023/03/14 05:59:38;;;;;;;5.93;4.18;;;;;;;;;;5010282;28;20048;-64
2023/03/14 06:02:04;;;;;;;6.30;4.40;;;;;;;;;;5009083;28;20052;-64
2023/03/14 06:04:29;;;;;;;6.20;4.10;;;;;;;;;;5008488;28;20413;-63
2023/03/14 06:06:54;;;;;;;6.30;4.00;;;;;;;;;;5010775;28;20813;-64
2023/03/14 06:09:22;;;;;;;5.75;3.83;;;;;;;;;;5008121;28;20611;-64
2023/03/14 06:11:47;;;;;;;6.32;4.25;;;;;;;;;;5008062;28;20128;-64
2023/03/14 06:14:12;;;;;;;6.50;4.27;;;;;;;;;;5009625;28;20632;-64
2023/03/14 06:16:37;;;;;;;6.20;4.10;;;;;;;;;;5009303;28;20318;-64
2023/03/14 06:19:03;;;;;;;5.93;4.33;;;;;;;;;;5007583;28;20296;-63
2023/03/14 06:21:28;;;;;;;6.40;4.37;;;;;;;;;;5002294;28;20288;-63
2023/03/14 06:23:53;;;;;;;5.03;3.78;;;;;;;;;;5010295;28;20293;-62
2023/03/14 06:26:18;;;;;;;6.32;4.20;;;;;;;;;;5008702;28;20036;-63
2023/03/14 06:28:44;;;;;;;7.57;4.73;;;;;;;;;;5009194;28;20265;-62
2023/03/14 06:31:09;;;;;;;5.38;4.13;;;;;;;;;;4991472;28;20311;-63
2023/03/14 06:33:34;;;;;;;6.53;4.10;;;;;;;;;;5015032;28;20140;-69
2023/03/14 06:35:59;;;;;;;7.20;4.15;;;;;;;;;;5012395;28;20840;-65
2023/03/14 06:38:25;;;;;;;6.07;3.90;;;;;;;;;;5007985;28;20089;-63
2023/03/14 06:40:50;;;;;;;6.75;4.25;;;;;;;;;;5008441;28;20102;-62
2023/03/14 06:43:15;;;;;;;7.60;3.97;;;;;;;;;;5009439;28;20598;-63
2023/03/14 06:45:40;;;;;;;4.87;3.73;;;;;;;;;;5008607;28;20573;-63
2023/03/14 06:48:06;;;;;;;6.20;3.90;;;;;;;;;;5007782;28;20961;-62
2023/03/14 06:50:31;;;;;;;6.63;3.83;;;;;;;;;;5009002;28;20293;-63
2023/03/14 06:52:56;;;;;;;7.43;4.30;;;;;;;;;;5007759;28;20034;-61
2023/03/14 06:55:21;;;;;;;5.50;3.80;;;;;;;;;;5007878;28;20801;-63
2023/03/14 06:57:47;;;;;;;5.53;3.92;;;;;;;;;;5013913;28;20319;-63
2023/03/14 07:00:12;;;;;;;6.13;4.10;;;;;;;;;;4997019;28;20040;-63
2023/03/14 07:02:37;;;;;;;7.05;4.07;;;;;;;;;;4991861;28;20037;-63
2023/03/14 07:05:03;;;;;;;5.90;3.60;;;;;;;;;;5003727;28;20979;-63
2023/03/14 07:07:28;;;;;;;6.10;4.20;;;;;;;;;;4992004;28;20315;-65
2023/03/14 07:09:53;;;;;;;6.97;4.80;;;;;;;;;;4991863;28;20112;-61
2023/03/14 07:12:19;;;;;;;7.43;4.00;;;;;;;;;;5009994;28;20041;-61
2023/03/14 07:14:44;;;;;;;5.55;4.15;;;;;;;;;;5001995;28;20331;-62
2023/03/14 07:17:09;;;;;;;6.23;3.97;;;;;;;;;;4996383;28;20045;-62
2023/03/14 07:19:34;;;;;;;6.27;3.70;;;;;;;;;;5008691;28;20038;-59
2023/03/14 07:21:59;;;;;;;7.17;4.30;;;;;;;;;;5008741;28;20300;-61
2023/03/14 07:24:25;;;;;;;7.53;4.20;;;;;;;;;;5008200;28;20716;-62
2023/03/14 07:26:50;;;;;;;6.27;4.17;;;;;;;;;;5009463;28;20292;-62
2023/03/14 07:29:15;;;;;;;6.93;4.13;;;;;;;;;;5010501;28;20042;-62
2023/03/14 07:31:40;;;;;;;6.68;4.10;;;;;;;;;;4993432;28;21076;-62
2023/03/14 07:34:06;;;;;;;5.77;3.93;;;;;;;;;;5008324;28;20034;-60
2023/03/14 07:36:31;;;;;;;7.43;4.20;;;;;;;;;;4976524;28;20273;-62
2023/03/14 07:38:56;;;;;;;6.53;4.15;;;;;;;;;;5010060;28;20058;-63
2023/03/14 07:41:22;;;;;;;5.50;3.97;;;;;;;;;;4990419;28;20014;-60
2023/03/14 07:43:48;;;;;;;7.75;4.20;;;;;;;;;;5012371;28;20307;-60
2023/03/14 07:46:14;;;;;;;7.25;3.85;;;;;;;;;;4993825;28;20549;-62
2023/03/14 07:48:40;;;;;;;6.35;4.00;;;;;;;;;;4991995;28;20042;-64
2023/03/14 07:51:05;;;;;;;5.97;3.90;;;;;;;;;;4991488;28;20024;-62
2023/03/14 07:53:30;;;;;;;5.50;3.97;;;;;;;;;;5008070;28;20537;-62
2023/03/14 07:55:56;;;;;;;5.83;4.00;;;;;;;;;;5007242;28;20458;-63
2023/03/14 07:58:24;;;;;;;5.43;3.63;;;;;;;;;;4995655;28;20372;-60
2023/03/14 08:00:49;;;;;;;6.72;4.20;;;;;;;;;;5008249;28;20276;-62
2023/03/14 08:03:15;;;;;;;6.00;4.10;;;;;;;;;;5006801;28;20462;-62
2023/03/14 08:05:41;;;;;;;5.80;3.70;;;;;;;;;;5008089;28;20033;-62
2023/03/14 08:08:07;;;;;;;8.23;4.47;;;;;;;;;;5008566;28;20025;-61
2023/03/14 08:10:32;;;;;;;6.80;4.27;;;;;;;;;;5008474;28;20029;-60
2023/03/14 08:12:58;;;;;;;7.03;3.83;;;;;;;;;;5006458;28;20280;-61
2023/03/14 08:15:23;;;;;;;5.93;3.80;;;;;;;;;;4992354;28;20028;-65
2023/03/14 08:17:50;;;;;;;6.60;3.60;;;;;;;;;;5009139;28;20511;-63
2023/03/14 08:20:18;;;;;;;5.80;3.70;;;;;;;;;;4996879;28;20516;-63
2023/03/14 08:22:44;;;;;;;6.65;4.15;;;;;;;;;;5009353;28;20091;-65
2023/03/14 08:25:09;;;;;;;6.30;3.57;;;;;;;;;;5010557;28;20066;-66
2023/03/14 08:27:34;;;;;;;6.43;4.00;;;;;;;;;;5011826;28;20298;-65
2023/03/14 08:30:00;;;;;;;5.90;3.60;;;;;;;;;;5012577;28;20507;-64
2023/03/14 08:32:25;;;;;;;5.03;3.80;;;;;;;;;;5012774;28;20041;-67
2023/03/14 08:34:50;;;;;;;7.27;3.90;;;;;;;;;;5011852;28;20064;-66
2023/03/14 08:37:15;;;;;;;6.70;3.90;;;;;;;;;;5012021;28;20038;-63
2023/03/14 08:39:41;;;;;;;5.80;4.03;;;;;;;;;;5012212;28;20369;-64
2023/03/14 08:42:06;;;;;;;5.03;3.50;;;;;;;;;;5010898;28;20723;-63
2023/03/14 08:44:31;;;;;;;6.13;3.60;;;;;;;;;;5010825;28;20303;-63
2023/03/14 08:46:56;;;;;;;6.60;3.88;;;;;;;;;;5010854;28;20347;-64
2023/03/14 08:49:22;;;;;;;6.07;3.60;;;;;;;;;;5010264;28;20061;-63
2023/03/14 08:51:47;;;;;;;6.73;3.63;;;;;;;;;;5010599;28;20714;-61
2023/03/14 08:54:12;;;;;;;5.03;3.20;;;;;;;;;;4992664;28;20418;-62
2023/03/14 08:56:38;;;;;;;4.90;3.42;;;;;;;;;;4998272;28;20442;-62
2023/03/14 08:59:03;;;;;;;6.30;3.53;;;;;;;;;;5012040;28;20543;-62
2023/03/14 09:01:28;;;;;;;6.13;3.55;;;;;;;;;;5010406;28;20034;-63
2023/03/14 09:03:54;;;;;;;6.10;3.30;;;;;;;;;;5009456;28;20042;-62
2023/03/14 09:06:19;;;;;;;6.63;3.77;;;;;;;;;;4998481;28;20045;-66
2023/03/14 09:08:45;;;;;;;4.33;3.30;;;;;;;;;;5011316;28;20759;-62
2023/03/14 09:11:10;;;;;;;7.03;3.92;;;;;;;;;;4998797;28;20120;-62
2023/03/14 09:13:36;;;;;;;5.70;3.67;;;;;;;;;;5012937;28;20543;-63
2023/03/14 09:16:01;;;;;;;4.05;3.28;;;;;;;;;;4994988;28;20483;-69
2023/03/14 09:18:26;;;;;;;5.88;3.60;;;;;;;;;;5006628;28;20132;-66
2023/03/14 09:20:51;;;;;;;5.90;3.35;;;;;;;;;;5011684;28;20486;-66
2023/03/14 09:23:17;;;;;;;4.87;3.20;;;;;;;;;;5012591;28;20487;-63
2023/03/14 09:25:42;;;;;;;5.20;3.53;;;;;;;;;;5011004;28;20724;-64
2023/03/14 09:28:07;;;;;;;4.70;3.43;;;;;;;;;;5009817;28;20437;-63
2023/03/14 09:30:32;;;;;;;5.13;3.83;;;;;;;;;;5011739;28;20443;-64
2023/03/14 09:32:58;;;;;;;5.15;3.45;;;;;;;;;;5010513;28;20296;-63
2023/03/14 09:35:24;;;;;;;4.30;3.22;;;;;;;;;;4998090;28;20507;-63
2023/03/14 09:37:49;;;;;;;7.33;3.53;;;;;;;;;;5011212;28;20037;-63
2023/03/14 09:40:18;;;;;;;5.67;3.80;;;;;;;;;;5011992;28;21025;-62
2023/03/14 09:42:43;;;;;;;4.65;3.47;;;;;;;;;;5010385;28;20321;-63
2023/03/14 09:45:12;;;;;;;5.43;3.60;;;;;;;;;;5011727;28;20061;-62
2023/03/14 09:47:38;;;;;;;5.57;3.50;;;;;;;;;;4994683;28;20085;-65
2023/03/14 09:50:05;;;;;;;4.97;3.25;;;;;;;;;;5008562;28;20530;-63
2023/03/14 09:52:35;;;;;;;5.38;3.38;;;;;;;;;;4999420;28;20054;-62
2023/03/14 09:55:00;;;;;;;;;;;;;;;;;;5010287;28;20037;-63
2023/03/14 09:57:25;;;;;;;4.67;3.10;;;;;;;;;;5010107;28;19914;-63
2023/03/14 09:59:51;;;;;;;5.05;3.10;;;;;;;;;;5009246;28;20320;-63
2023/03/14 10:02:21;;;;;;;6.72;3.28;;;;;;;;;;5010812;28;20482;-64
2023/03/14 10:04:46;;;;;;;5.28;3.47;;;;;;;;;;5011199;28;20041;-63
2023/03/14 10:07:16;;;;;;;3.80;2.80;;;;;;;;;;4988295;28;20118;-64
2023/03/14 10:09:44;;;;;;;4.32;3.20;;;;;;;;;;5010957;28;20065;-64
2023/03/14 10:12:09;;;;;;;4.88;3.40;;;;;;;;;;4991929;28;20033;-64
2023/03/14 10:14:35;;;;;;;5.07;3.30;;;;;;;;;;4993067;28;20042;-63
2023/03/14 10:17:04;;;;;;;3.92;2.85;;;;;;;;;;5009602;28;20518;-64
2023/03/14 10:19:30;;;;;;;5.10;3.38;;;;;;;;;;5010329;28;20029;-64
2023/03/14 10:21:56;;;;;;;5.03;3.43;;;;;;;;;;5009687;28;20049;-66
2023/03/14 10:24:24;;;;;;;5.20;3.05;;;;;;;;;;5010305;28;20108;-63
2023/03/14 10:27:05;;;;;;;6.13;3.80;;;;;;;;;;5011037;28;20127;-63
2023/03/14 10:29:31;;;;;;;5.18;3.13;;;;;;;;;;5004514;28;20457;-64
2023/03/14 10:32:03;;;;;;;5.38;2.83;;;;;;;;;;5011369;28;20049;-65
2023/03/14 10:34:29;;;;;;;5.30;2.80;;;;;;;;;;4981754;28;20332;-65
2023/03/14 10:36:55;;;;;;;4.40;2.90;;;;;;;;;;5003546;28;20723;-63
2023/03/14 10:39:25;;;;;;;5.22;2.95;;;;;;;;;;4993968;28;20048;-64
2023/03/14 10:41:54;;;;;;;4.32;3.13;;;;;;;;;;4991499;28;20585;-64
2023/03/14 10:44:20;;;;;;;4.50;3.47;;;;;;;;;;4995943;28;20037;-65
2023/03/14 10:46:46;;;;;;;4.50;2.88;;;;;;;;;;4991848;28;20037;-62
2023/03/14 10:49:22;;;;;;;4.65;3.30;;;;;;;;;;4992915;28;20123;-64
2023/03/14 10:51:47;;;;;;;4.85;3.00;;;;;;;;;;4991290;28;20041;-63
2023/03/14 10:54:13;;;;;;;5.37;3.40;;;;;;;;;;4991580;28;20458;-64
2023/03/14 10:56:39;;;;;;;4.38;2.80;;;;;;;;;;5009754;28;20041;-63
2023/03/14 10:59:06;;;;;;;4.27;2.93;;;;;;;;;;5005881;28;20045;-64
2023/03/14 11:01:41;;;;;;;4.60;3.20;;;;;;;;;;5003312;28;20315;-64
2023/03/14 11:04:15;;;;;;;3.70;2.78;;;;;;;;;;5008102;28;20056;-66
2023/03/14 11:06:40;;;;;;;3.90;2.90;;;;;;;;;;5007088;28;20128;-63
2023/03/14 11:09:06;;;;;;;3.33;2.50;;;;;;;;;;5005893;28;20692;-64
2023/03/14 11:11:31;;;;;;;3.90;2.80;;;;;;;;;;5009318;28;20045;-63
2023/03/14 11:13:57;;;;;;;4.00;2.90;;;;;;;;;;5006508;28;20295;-63
2023/03/14 11:16:32;;;;;;;4.00;2.70;;;;;;;;;;5009879;28;20300;-63
2023/03/14 11:19:02;;;;;;;4.45;2.80;;;;;;;;;;4991576;28;20054;-63
2023/03/14 11:21:27;;;;;;;5.15;2.92;;;;;;;;;;5008596;28;20022;-66
2023/03/14 11:23:55;;;;;;;4.40;3.20;;;;;;;;;;5007848;28;20030;-65
2023/03/14 11:26:50;;;;;;;4.13;2.80;;;;;;;;;;4991615;28;20026;-63
2023/03/14 11:29:28;;;;;;;3.85;3.05;;;;;;;;;;4997435;28;20074;-62
2023/03/14 11:31:54;;;;;;;3.80;2.60;;;;;;;;;;4979979;28;20037;-65
2023/03/14 11:34:22;;;;;;;4.43;2.60;;;;;;;;;;5005173;28;20426;-64
2023/03/14 11:37:00;;;;;;;4.20;2.83;;;;;;;;;;4970421;28;20037;-65
2023/03/14 11:39:26;;;;;;;4.43;2.90;;;;;;;;;;5008689;28;20119;-63
2023/03/14 11:41:52;;;;;;;4.78;2.95;;;;;;;;;;5002542;28;20265;-62
2023/03/14 11:44:19;;;;;;;3.83;2.83;;;;;;;;;;5007442;28;20042;-63
2023/03/14 11:46:49;;;;;;;4.75;2.63;;;;;;;;;;5008849;28;20076;-63
2023/03/14 11:49:30;;;;;;;5.18;2.85;;;;;;;;;;4990259;28;20132;-62
2023/03/14 11:51:56;;;;;;;4.68;2.60;;;;;;;;;;4974162;28;20088;-62
2023/03/14 11:54:42;;;;;;;5.97;3.00;;;;;;;;;;5007485;28;20172;-63
2023/03/14 11:57:12;;;;;;;3.63;2.53;;;;;;;;;;5008439;28;20232;-63
2023/03/14 11:59:55;;;;;;;3.70;2.65;;;;;;;;;;5006109;28;20037;-63
2023/03/14 12:02:29;;;;;;;3.50;2.58;;;;;;;;;;5006202;28;20149;-62
2023/03/14 12:05:13;;;;;;;3.70;2.50;;;;;;;;;;5009954;28;20482;-65
2023/03/14 12:07:47;;;;;;;4.20;2.58;;;;;;;;;;5011594;28;20168;-62
2023/03/14 12:10:12;;;;;;;3.65;2.53;;;;;;;;;;4996569;28;20099;-64
2023/03/14 12:12:37;;;;;;;4.30;2.50;;;;;;;;;;5013086;28;20041;-63
2023/03/14 12:15:03;;;;;;;3.67;2.50;;;;;;;;;;5005604;28;21812;-63
2023/03/14 12:17:34;;;;;;;4.47;2.50;;;;;;;;;;5010813;28;20074;-61
2023/03/14 12:20:15;;;;;;;4.57;2.20;;;;;;;;;;5010475;28;20505;-61
2023/03/14 12:22:50;;;;;;;4.57;2.60;;;;;;;;;;5009675;28;20061;-61
2023/03/14 12:25:17;;;;;;;3.70;2.40;;;;;;;;;;5005615;28;20485;-62
2023/03/14 12:27:47;;;;;;;3.67;2.10;;;;;;;;;;4993706;28;20857;-60
2023/03/14 12:30:16;;;;;;;3.33;2.30;;;;;;;;;;4991089;28;20129;-62
2023/03/14 12:32:42;;;;;;;;;;;;;;;;;;5010576;28;20051;-61
2023/03/14 12:35:27;;;;;;;4.38;2.38;;;;;;;;;;5010618;28;19921;-62
2023/03/14 12:37:52;;;;;;;5.78;2.63;;;;;;;;;;5011156;28;20492;-62
2023/03/14 12:40:19;;;;;;;3.83;2.40;;;;;;;;;;4991752;28;20049;-61
2023/03/14 12:43:00;;;;;;;2.53;1.92;;;;;;;;;;5007769;28;20563;-63
2023/03/14 12:45:29;;;;;;;3.58;2.10;;;;;;;;;;4998686;28;20038;-63
2023/03/14 12:48:00;;;;;;;3.92;2.22;;;;;;;;;;5009521;28;20136;-61
2023/03/14 12:50:26;;;;;;;3.45;2.20;;;;;;;;;;5008504;28;20041;-60
2023/03/14 12:52:51;;;;;;;3.10;2.08;;;;;;;;;;5011657;28;20228;-60
2023/03/14 12:55:33;;;;;;;4.40;2.60;;;;;;;;;;5009682;28;20089;-61
2023/03/14 12:58:17;;;;;;;3.08;2.10;;;;;;;;;;5000462;28;20065;-61
2023/03/14 13:00:42;;;;;;;4.10;2.22;;;;;;;;;;5011715;28;20114;-62
2023/03/14 13:03:13;;;;;;;3.22;1.90;;;;;;;;;;5012973;28;20483;-64
2023/03/14 13:05:50;;;;;;;2.75;1.77;;;;;;;;;;5014725;28;20034;-64
2023/03/14 13:08:15;;;;;;;3.17;1.85;;;;;;;;;;4997160;28;20080;-63
2023/03/14 13:10:47;;;;;;;3.40;1.80;;;;;;;;;;4995586;28;20037;-64
2023/03/14 13:13:22;;;;;;;3.30;2.10;;;;;;;;;;5017366;28;20502;-64
2023/03/14 13:15:48;;;;;;;3.58;1.92;;;;;;;;;;5013118;28;20149;-63
2023/03/14 13:18:16;;;;;;;4.75;2.00;;;;;;;;;;4996545;28;20155;-63
2023/03/14 13:20:44;;;;;;;2.85;1.70;;;;;;;;;;5012599;28;20065;-64
2023/03/14 13:23:22;;;;;;;3.65;1.90;;;;;;;;;;4995546;28;20553;-63
2023/03/14 13:25:48;;;;;;;3.38;1.95;;;;;;;;;;4996745;28;20723;-64
2023/03/14 13:28:13;;;;;;;4.03;1.97;;;;;;;;;;4994788;28;20438;-63
2023/03/14 13:30:42;;;;;;;2.88;1.63;;;;;;;;;;5003395;28;20037;-66
2023/03/14 13:33:11;;;;;;;2.40;1.55;;;;;;;;;;5007412;28;20094;-64
2023/03/14 13:35:46;;;;;;;5.90;2.10;;;;;;;;;;5007841;28;20055;-67
2023/03/14 13:38:25;;;;;;;4.15;1.83;;;;;;;;;;4974115;28;20098;-67
2023/03/14 13:40:50;;;;;;;3.30;1.70;;;;;;;;;;4990273;28;20239;-65
2023/03/14 13:43:16;;;;;;;3.53;2.08;;;;;;;;;;4987694;28;20129;-67
2023/03/14 13:45:45;;;;;;;3.10;1.70;;;;;;;;;;5004086;28;20046;-67
2023/03/14 13:48:11;;;;;;;3.95;2.03;;;;;;;;;;5011913;28;20056;-64
2023/03/14 13:50:36;;;;;;;2.42;1.60;;;;;;;;;;5006503;28;20034;-66
2023/03/14 13:53:01;;;;;;;2.40;1.70;;;;;;;;;;4996885;28;20042;-64
2023/03/14 13:55:26;;;;;;;3.80;2.03;;;;;;;;;;4997625;28;20291;-64
2023/03/14 13:57:55;;;;;;;3.58;1.60;;;;;;;;;;4991005;28;20337;-66
2023/03/14 14:00:23;;;;;;;4.53;1.60;;;;;;;;;;5000036;28;20037;-64
2023/03/14 14:02:48;;;;;;;3.42;1.60;;;;;;;;;;4990565;28;20026;-67
2023/03/14 14:05:14;;;;;;;2.43;1.60;;;;;;;;;;5007978;28;20053;-65
2023/03/14 14:07:39;;;;;;;3.30;1.53;;;;;;;;;;4973092;28;20304;-66
2023/03/14 14:10:05;;;;;;;2.83;1.85;;;;;;;;;;5024373;28;20342;-63
2023/03/14 14:12:35;;;;;;;2.90;1.50;;;;;;;;;;5004609;28;20052;-64
2023/03/14 14:15:00;;;;;;;;;;;;;;;;;;5002532;28;20491;-64
2023/03/14 14:17:34;;;;;;;3.00;1.40;;;;;;;;;;5008845;28;20070;-63
2023/03/14 14:20:00;;;;;;;3.08;1.80;;;;;;;;;;5005910;28;20045;-68
2023/03/14 14:22:25;;;;;;;4.03;1.67;;;;;;;;;;4982996;28;20079;-63
2023/03/14 14:24:51;;;;;;;6.50;2.67;;;;;;;;;;5018115;28;20494;-64
2023/03/14 14:27:25;;;;;;;3.65;2.33;;;;;;;;;;4999621;28;20083;-66
2023/03/14 14:30:01;;;;;;;3.15;1.95;;;;;;;;;;5024088;28;20041;-66
2023/03/14 14:32:26;;;;;;;3.30;1.80;;;;;;;;;;5026394;28;20820;-65
2023/03/14 14:34:54;;;;;;;2.72;1.58;;;;;;;;;;5021386;28;20180;-66
2023/03/14 14:37:26;;;;;;;4.22;1.70;;;;;;;;;;5013213;28;20494;-65
2023/03/14 14:39:52;;;;;;;3.00;1.83;;;;;;;;;;5020562;28;20045;-65
2023/03/14 14:42:18;;;;;;;3.35;1.92;;;;;;;;;;5025069;28;20120;-63